Terminal Aerodrome Forecast
Issued by NWS Duluth, MN

Home | Current Version | Previous Version | Text Only | Print | Product List | Glossary On
Versions: 1 2 3 4 5 6 7 8 9 10 11 12 13 14 15 16 17 18 19 20 21 22
016
FTUS43 KDLH 132339
TAFINL
TAF
KINL 132339Z 1400/1424 21006G14KT P6SM SCT100
     FM140200 VRB03KT P6SM VCSH BKN030 OVC100
      TEMPO 1407/1411 5SM BR
     FM141100 09004KT P6SM BKN040
     FM141700 VRB03KT P6SM BKN050=

USA.gov is the U.S. government's official web portal to all federal, state and local government web resources and services.